Weather at Chicago O'Hare International Airport

Public forecast

Using degrees Fahrenheit for public forecast. Weather courtesy of forecast.io.

Current aviation weather report (METAR) for Chicago O'Hare International Airport

Retrieved 2021/06/16 22:51 UTC (35 minutes ago):

KORD 162251Z 06010KT 10SM FEW250 23/03 A3006 RMK AO2 SLP176 T02280028

Aviation forecast (TAF) for Chicago O'Hare International Airport

Retrieved 2021/06/16 18:22 UTC (5 hours ago):

TAF KORD 161720Z 1618/1724 02007KT P6SM SKC FM162000 08011KT P6SM FEW250 FM170200 08005KT P6SM SKC FM171400 19010G15KT P6SM SCT250